createdAt,value
2023-04-15T00:00:59.956Z,2.15
2023-04-15T00:03:27.540Z,2.13
2023-04-15T00:05:54.504Z,2.28
2023-04-15T00:08:21.288Z,2.10
2023-04-15T00:10:48.147Z,3.42
2023-04-15T00:13:15.575Z,2.15
2023-04-15T00:15:43.390Z,1.95
2023-04-15T00:18:10.604Z,1.80
2023-04-15T00:20:37.795Z,2.85
2023-04-15T00:23:05.682Z,3.92
2023-04-15T00:25:33.177Z,4.22
2023-04-15T00:28:00.214Z,2.78
2023-04-15T00:30:27.098Z,2.58
2023-04-15T00:32:54.014Z,1.92
2023-04-15T00:35:24.059Z,2.60
2023-04-15T00:37:51.579Z,2.78
2023-04-15T00:40:21.112Z,2.72
2023-04-15T00:42:48.134Z,2.40
2023-04-15T00:45:15.747Z,2.50
2023-04-15T00:47:44.483Z,2.53
2023-04-15T00:50:12.770Z,2.90
2023-04-15T00:52:40.920Z,2.70
2023-04-15T00:55:08.825Z,2.45
2023-04-15T00:57:36.568Z,2.35
2023-04-15T01:00:05.783Z,2.10
2023-04-15T01:02:33.646Z,2.25
2023-04-15T01:05:04.103Z,2.33
2023-04-15T01:07:32.064Z,2.80
2023-04-15T01:09:59.134Z,2.88
2023-04-15T01:12:27.508Z,2.72
2023-04-15T01:14:56.300Z,3.08
2023-04-15T01:17:24.874Z,2.45
2023-04-15T01:19:52.859Z,2.42
2023-04-15T01:22:19.819Z,2.70
2023-04-15T01:24:57.518Z,2.45
2023-04-15T01:27:24.973Z,2.72
2023-04-15T01:29:52.020Z,2.75
2023-04-15T01:32:19.444Z,2.03
2023-04-15T01:34:46.278Z,2.65
2023-04-15T01:37:13.128Z,1.75
2023-04-15T01:39:40.530Z,2.45
2023-04-15T01:42:07.726Z,2.80
2023-04-15T01:44:34.582Z,3.40
2023-04-15T01:47:01.465Z,2.83
2023-04-15T01:49:28.529Z,2.88
2023-04-15T01:51:55.348Z,2.50
2023-04-15T01:54:22.658Z,2.88
2023-04-15T01:56:51.329Z,2.60
2023-04-15T01:59:18.819Z,2.13
2023-04-15T02:01:46.679Z,2.92
2023-04-15T02:04:19.394Z,3.00
2023-04-15T02:06:46.451Z,3.03
2023-04-15T02:09:14.272Z,2.80
2023-04-15T02:11:41.163Z,3.03
2023-04-15T02:14:07.970Z,2.55
2023-04-15T02:16:34.821Z,3.45
2023-04-15T02:19:02.273Z,3.50
2023-04-15T02:21:30.810Z,3.45
2023-04-15T02:23:57.745Z,2.70
2023-04-15T02:26:25.721Z,3.50
2023-04-15T02:28:55.006Z,3.58
2023-04-15T02:31:21.987Z,3.25
2023-04-15T02:33:48.888Z,3.03
2023-04-15T02:36:15.777Z,3.13
2023-04-15T02:38:43.945Z,3.38
2023-04-15T02:41:12.653Z,3.22
2023-04-15T02:43:40.101Z,3.30
2023-04-15T02:46:08.607Z,3.30
2023-04-15T02:48:36.142Z,3.67
2023-04-15T02:51:20.060Z,3.72
2023-04-15T02:53:48.673Z,3.65
2023-04-15T02:56:17.317Z,3.78
2023-04-15T02:58:45.787Z,4.10
2023-04-15T03:01:12.950Z,4.78
2023-04-15T03:03:41.072Z,4.35
2023-04-15T03:06:09.159Z,4.18
2023-04-15T03:08:37.076Z,3.50
2023-04-15T03:11:04.759Z,3.80
2023-04-15T03:13:32.946Z,4.00
2023-04-15T03:16:05.839Z,3.38
2023-04-15T03:18:33.165Z,3.78
2023-04-15T03:21:03.016Z,3.85
2023-04-15T03:23:33.124Z,4.53
2023-04-15T03:26:04.321Z,4.32
2023-04-15T03:28:32.954Z,4.35
2023-04-15T03:31:00.748Z,4.35
2023-04-15T03:33:27.771Z,4.18
2023-04-15T03:35:54.736Z,4.60
2023-04-15T03:38:21.773Z,3.92
2023-04-15T03:40:48.714Z,4.03
2023-04-15T03:43:15.762Z,4.50
2023-04-15T03:45:42.672Z,4.15
2023-04-15T03:48:17.158Z,4.55
2023-04-15T03:50:45.307Z,3.75
2023-04-15T03:53:12.194Z,3.83
2023-04-15T03:55:39.014Z,5.28
2023-04-15T03:58:05.837Z,4.93
2023-04-15T04:00:32.647Z,4.65
2023-04-15T04:02:59.704Z,4.75
2023-04-15T04:05:26.749Z,4.70
2023-04-15T04:07:53.684Z,5.00
2023-04-15T04:10:20.457Z,4.80
2023-04-15T04:12:47.303Z,5.32
2023-04-15T04:15:14.204Z,5.30
2023-04-15T04:17:41.080Z,5.10
2023-04-15T04:20:08.992Z,5.65
2023-04-15T04:22:40.213Z,5.00
2023-04-15T04:25:08.777Z,5.28
2023-04-15T04:27:36.012Z,6.15
2023-04-15T04:30:02.986Z,8.50
2023-04-15T04:32:29.929Z,13.45
2023-04-15T04:34:56.815Z,9.52
2023-04-15T04:37:24.722Z,9.70
2023-04-15T04:39:51.703Z,9.02
2023-04-15T04:42:18.562Z,9.35
2023-04-15T04:44:45.434Z,8.98
2023-04-15T04:47:12.363Z,8.27
2023-04-15T04:49:45.058Z,19.90
2023-04-15T04:52:12.380Z,9.93
2023-04-15T04:54:39.234Z,8.60
2023-04-15T04:57:21.672Z,7.32
2023-04-15T04:59:51.334Z,5.20
2023-04-15T05:02:24.176Z,5.65
2023-04-15T05:05:04.458Z,6.38
2023-04-15T05:07:33.694Z,6.88
2023-04-15T05:10:00.534Z,6.45
2023-04-15T05:12:27.405Z,7.00
2023-04-15T05:14:54.300Z,7.30
2023-04-15T05:17:21.163Z,7.35
2023-04-15T05:19:48.274Z,7.50
2023-04-15T05:22:15.083Z,5.70
2023-04-15T05:24:41.905Z,5.47
2023-04-15T05:27:10.681Z,5.60
2023-04-15T05:29:37.554Z,5.55
2023-04-15T05:32:04.601Z,5.80
2023-04-15T05:34:31.698Z,6.13
2023-04-15T05:36:58.699Z,6.03
2023-04-15T05:39:25.708Z,5.47
2023-04-15T05:41:52.590Z,6.72
2023-04-15T05:44:19.493Z,8.45
2023-04-15T05:46:46.607Z,7.28
2023-04-15T05:49:13.521Z,8.32
2023-04-15T05:51:40.626Z,6.72
2023-04-15T05:54:07.471Z,6.85
2023-04-15T05:56:34.350Z,5.90
2023-04-15T05:59:01.885Z,6.78
2023-04-15T06:01:28.936Z,6.60
2023-04-15T06:03:56.184Z,5.80
2023-04-15T06:06:23.608Z,7.22
2023-04-15T06:08:50.453Z,7.47
2023-04-15T06:11:17.385Z,6.72
2023-04-15T06:13:44.247Z,6.63
2023-04-15T06:16:11.977Z,7.43
2023-04-15T06:18:38.934Z,7.43
2023-04-15T06:21:09.334Z,13.45
2023-04-15T06:23:37.237Z,9.65
2023-04-15T06:26:04.136Z,12.05
2023-04-15T06:28:31.004Z,7.53
2023-04-15T06:30:58.051Z,4.10
2023-04-15T06:33:25.055Z,6.53
2023-04-15T06:35:51.859Z,4.25
2023-04-15T06:38:18.722Z,8.93
2023-04-15T06:40:46.472Z,7.00
2023-04-15T06:43:13.333Z,5.70
2023-04-15T06:45:40.428Z,45.65
2023-04-15T06:48:07.355Z,7.55
2023-04-15T06:50:35.748Z,3.60
2023-04-15T06:53:03.235Z,3.20
2023-04-15T06:55:31.685Z,4.47
2023-04-15T06:57:58.564Z,4.00
2023-04-15T07:00:25.675Z,4.32
2023-04-15T07:02:52.938Z,4.07
2023-04-15T07:05:20.296Z,4.07
2023-04-15T07:07:47.312Z,4.35
2023-04-15T07:10:15.997Z,4.40
2023-04-15T07:12:42.929Z,3.47
2023-04-15T07:15:10.328Z,4.00
2023-04-15T07:17:37.380Z,3.50
2023-04-15T07:20:05.082Z,3.80
2023-04-15T07:22:31.996Z,3.42
2023-04-15T07:24:58.799Z,3.17
2023-04-15T07:27:26.101Z,2.78
2023-04-15T07:29:53.279Z,3.33
2023-04-15T07:32:20.296Z,2.83
2023-04-15T07:34:47.343Z,3.08
2023-04-15T07:37:15.012Z,3.42
2023-04-15T07:39:41.950Z,2.50
2023-04-15T07:42:08.857Z,2.33
2023-04-15T07:44:35.795Z,2.70
2023-04-15T07:47:03.340Z,3.22
2023-04-15T07:49:30.706Z,2.08
2023-04-15T07:51:57.915Z,2.80
2023-04-15T07:54:25.000Z,2.85
2023-04-15T07:56:51.809Z,2.00
2023-04-15T07:59:18.808Z,2.00
2023-04-15T08:01:45.939Z,1.92
2023-04-15T08:04:12.854Z,1.58
2023-04-15T08:06:40.165Z,1.40
2023-04-15T08:09:07.268Z,1.40
2023-04-15T08:11:34.214Z,1.30
2023-04-15T08:14:01.299Z,1.58
2023-04-15T08:16:28.730Z,1.52
2023-04-15T08:18:57.046Z,1.92
2023-04-15T08:21:24.642Z,1.50
2023-04-15T08:23:52.813Z,1.77
2023-04-15T08:26:21.182Z,1.70
2023-04-15T08:28:48.789Z,1.58
2023-04-15T08:31:17.063Z,1.50
2023-04-15T08:33:44.015Z,2.10
2023-04-15T08:36:11.097Z,2.05
2023-04-15T08:38:38.219Z,1.60
2023-04-15T08:41:11.918Z,2.17
2023-04-15T08:43:49.481Z,2.55
2023-04-15T08:46:16.991Z,2.10
2023-04-15T08:48:48.159Z,2.35
2023-04-15T08:51:16.458Z,3.72
2023-04-15T08:53:47.562Z,3.55
2023-04-15T08:56:16.964Z,3.42
2023-04-15T08:58:45.130Z,3.05
2023-04-15T09:01:15.260Z,1.83
2023-04-15T09:03:43.407Z,2.55
2023-04-15T09:06:12.974Z,2.65
2023-04-15T09:08:39.822Z,2.30
2023-04-15T09:11:06.584Z,2.35
2023-04-15T09:13:33.423Z,2.75
2023-04-15T09:16:03.709Z,2.95
2023-04-15T09:18:32.437Z,3.65
2023-04-15T09:21:11.525Z,2.90
2023-04-15T09:23:42.028Z,2.90
2023-04-15T09:26:08.962Z,3.17
2023-04-15T09:28:43.028Z,2.72
2023-04-15T09:31:10.906Z,3.30
2023-04-15T09:33:56.963Z,3.05
2023-04-15T09:36:25.257Z,2.97
2023-04-15T09:38:57.343Z,3.13
2023-04-15T09:41:25.179Z,2.58
2023-04-15T09:43:52.492Z,3.03
2023-04-15T09:46:19.675Z,3.17
2023-04-15T09:48:46.738Z,4.10
2023-04-15T09:51:13.559Z,2.95
2023-04-15T09:53:40.424Z,3.53
2023-04-15T09:56:09.089Z,4.00
2023-04-15T09:58:37.460Z,3.70
2023-04-15T10:01:06.331Z,3.92
2023-04-15T10:03:36.969Z,3.13
2023-04-15T10:06:05.806Z,3.42
2023-04-15T10:08:35.077Z,3.63
2023-04-15T10:11:03.183Z,3.65
2023-04-15T10:13:36.586Z,2.70
2023-04-15T10:16:14.600Z,3.10
2023-04-15T10:18:45.507Z,3.50
2023-04-15T10:21:14.176Z,3.03
2023-04-15T10:23:41.374Z,3.30
2023-04-15T10:26:09.570Z,3.20
2023-04-15T10:28:36.416Z,3.00
2023-04-15T10:31:06.206Z,6.35
2023-04-15T10:33:34.111Z,2.92
2023-04-15T10:36:01.618Z,3.20
2023-04-15T10:38:45.902Z,3.05
2023-04-15T10:41:21.631Z,3.35
2023-04-15T10:43:56.399Z,2.38
2023-04-15T10:46:40.910Z,2.63
2023-04-15T10:49:11.165Z,2.67
2023-04-15T10:51:42.830Z,2.25
2023-04-15T10:54:29.833Z,2.03
2023-04-15T10:57:02.971Z,1.83
2023-04-15T10:59:32.668Z,2.25
2023-04-15T11:02:05.411Z,1.90
2023-04-15T11:04:58.417Z,2.55
2023-04-15T11:07:58.627Z,1.70
2023-04-15T11:10:25.808Z,1.50
2023-04-15T11:13:16.813Z,1.65
2023-04-15T11:15:47.437Z,1.55
2023-04-15T11:18:23.445Z,1.35
2023-04-15T11:20:54.777Z,1.65
2023-04-15T11:23:28.831Z,1.63
2023-04-15T11:26:00.011Z,1.48
2023-04-15T11:28:28.292Z,1.55
2023-04-15T11:30:55.893Z,1.70
2023-04-15T11:33:24.102Z,1.60
2023-04-15T11:35:55.313Z,1.40
2023-04-15T11:38:22.873Z,1.80
2023-04-15T11:40:51.443Z,1.40
2023-04-15T11:43:22.967Z,1.48
2023-04-15T11:45:54.707Z,1.40
2023-04-15T11:51:09.526Z,1.50
2023-04-15T11:53:37.479Z,1.77
2023-04-15T11:56:04.729Z,2.22
2023-04-15T11:58:31.826Z,1.48
2023-04-15T12:01:00.349Z,1.50
2023-04-15T12:03:45.353Z,1.50
2023-04-15T12:06:19.721Z,1.65
2023-04-15T12:08:55.761Z,1.70
2023-04-15T12:11:38.028Z,1.77
2023-04-15T12:14:16.951Z,5.55
2023-04-15T12:16:52.667Z,1.80
2023-04-15T12:19:25.434Z,1.60
2023-04-15T12:21:58.262Z,1.50
2023-04-15T12:24:27.154Z,1.52
2023-04-15T12:26:57.322Z,1.20
2023-04-15T12:29:28.660Z,1.30
2023-04-15T12:31:58.002Z,1.63
2023-04-15T12:34:45.731Z,1.35
2023-04-15T12:37:16.139Z,1.13
2023-04-15T12:39:44.685Z,1.60
2023-04-15T12:42:12.474Z,1.80
2023-04-15T12:44:39.885Z,1.50
2023-04-15T12:47:08.077Z,1.33
2023-04-15T12:49:35.327Z,1.80
2023-04-15T12:52:03.448Z,2.40
2023-04-15T12:54:31.946Z,1.08
2023-04-15T12:56:59.567Z,2.00
2023-04-15T12:59:27.010Z,1.60
2023-04-15T13:01:54.926Z,1.45
2023-04-15T13:04:22.402Z,1.20
2023-04-15T13:06:49.829Z,1.90
2023-04-15T13:09:16.770Z,1.25
2023-04-15T13:11:43.895Z,1.20
2023-04-15T13:14:13.697Z,1.52
2023-04-15T13:16:40.883Z,6.10
2023-04-15T13:19:08.050Z,1.40
2023-04-15T13:21:36.121Z,1.23
2023-04-15T13:24:05.195Z,1.20
2023-04-15T13:26:32.336Z,1.33
2023-04-15T13:28:59.859Z,1.55
2023-04-15T13:31:27.291Z,1.23
2023-04-15T13:33:54.286Z,1.05
2023-04-15T13:36:21.342Z,1.00
2023-04-15T13:38:51.000Z,0.90
2023-04-15T13:41:18.528Z,1.13
2023-04-15T13:43:45.692Z,1.38
2023-04-15T13:46:12.959Z,2.13
2023-04-15T13:48:40.268Z,1.17
2023-04-15T13:51:07.114Z,1.42
2023-04-15T13:53:38.785Z,1.00
2023-04-15T13:56:10.098Z,2.28
2023-04-15T13:58:38.219Z,1.25
2023-04-15T14:01:06.780Z,1.08
2023-04-15T14:03:36.538Z,1.13
2023-04-15T14:06:04.727Z,1.10
2023-04-15T14:08:31.864Z,1.50
2023-04-15T14:10:58.869Z,1.15
2023-04-15T14:13:25.988Z,1.30
2023-04-15T14:15:53.105Z,1.33
2023-04-15T14:18:20.331Z,1.30
2023-04-15T14:20:47.206Z,1.20
2023-04-15T14:23:14.160Z,1.52
2023-04-15T14:25:41.093Z,1.35
2023-04-15T14:28:07.967Z,1.75
2023-04-15T14:30:34.860Z,1.50
2023-04-15T14:33:01.968Z,1.60
2023-04-15T14:35:29.024Z,1.52
2023-04-15T14:37:56.202Z,1.50
2023-04-15T14:40:23.154Z,1.63
2023-04-15T14:42:50.018Z,1.40
2023-04-15T14:45:17.729Z,1.40
2023-04-15T14:47:44.845Z,1.30
2023-04-15T14:50:12.059Z,1.40
2023-04-15T14:52:39.072Z,1.20
2023-04-15T14:55:11.641Z,1.30
2023-04-15T14:57:39.880Z,1.25
2023-04-15T15:00:08.312Z,1.33
2023-04-15T15:02:39.649Z,1.20
2023-04-15T15:05:08.250Z,1.30
2023-04-15T15:07:37.176Z,1.45
2023-04-15T15:10:05.158Z,1.55
2023-04-15T15:12:33.149Z,1.10
2023-04-15T15:15:01.635Z,1.23
2023-04-15T15:17:30.091Z,1.30
2023-04-15T15:19:57.503Z,1.48
2023-04-15T15:22:26.257Z,9.63
2023-04-15T15:24:53.678Z,24.13
2023-04-15T15:27:20.826Z,14.82
2023-04-15T15:29:47.749Z,2.80
2023-04-15T15:32:14.634Z,1.65
2023-04-15T15:34:41.491Z,4.38
2023-04-15T15:37:08.318Z,7.05
2023-04-15T15:39:36.108Z,14.30
2023-04-15T15:42:03.032Z,6.57
2023-04-15T15:44:29.932Z,20.05
2023-04-15T15:46:56.886Z,5.80
2023-04-15T15:49:25.528Z,5.85
2023-04-15T15:51:52.526Z,5.95
2023-04-15T15:54:19.339Z,20.10
2023-04-15T15:56:46.180Z,11.23
2023-04-15T15:59:15.735Z,9.27
2023-04-15T16:01:43.329Z,3.95
2023-04-15T16:04:10.629Z,2.80
2023-04-15T16:06:38.352Z,2.47
2023-04-15T16:09:05.552Z,2.67
2023-04-15T16:11:32.597Z,2.13
2023-04-15T16:13:59.624Z,2.58
2023-04-15T16:16:26.575Z,2.40
2023-04-15T16:18:53.510Z,2.75
2023-04-15T16:21:20.800Z,2.38
2023-04-15T16:23:47.675Z,2.90
2023-04-15T16:26:14.872Z,2.90
2023-04-15T16:28:41.782Z,3.10
2023-04-15T16:31:10.948Z,4.70
2023-04-15T16:33:38.960Z,4.40
2023-04-15T16:36:06.322Z,5.00
2023-04-15T16:38:33.161Z,4.80
2023-04-15T16:41:01.309Z,4.60
2023-04-15T16:43:29.150Z,5.20
2023-04-15T16:45:56.122Z,4.47
2023-04-15T16:48:23.011Z,4.28
2023-04-15T16:50:50.045Z,4.53
2023-04-15T16:53:16.911Z,5.82
2023-04-15T16:55:43.787Z,3.65
2023-04-15T16:58:10.636Z,3.80
2023-04-15T17:00:37.650Z,3.70
2023-04-15T17:03:06.152Z,4.60
2023-04-15T17:05:33.702Z,3.25
2023-04-15T17:08:00.728Z,4.57
2023-04-15T17:10:27.915Z,7.57
2023-04-15T17:12:58.214Z,10.90
2023-04-15T17:15:25.531Z,5.60
2023-04-15T17:17:52.610Z,3.50
2023-04-15T17:20:20.027Z,2.85
2023-04-15T17:22:48.696Z,3.03
2023-04-15T17:25:16.040Z,4.15
2023-04-15T17:27:42.973Z,4.22
2023-04-15T17:30:10.257Z,9.82
2023-04-15T17:32:39.966Z,6.47
2023-04-15T17:35:07.802Z,8.38
2023-04-15T17:37:34.993Z,8.45
2023-04-15T17:40:02.539Z,3.60
2023-04-15T17:42:29.402Z,5.30
2023-04-15T17:44:56.424Z,5.60
2023-04-15T17:47:23.249Z,4.70
2023-04-15T17:49:50.158Z,3.25
2023-04-15T17:52:16.982Z,4.20
2023-04-15T17:54:43.797Z,3.33
2023-04-15T17:57:13.392Z,3.22
2023-04-15T17:59:45.137Z,4.25
2023-04-15T18:02:12.194Z,3.70
2023-04-15T18:04:39.990Z,4.28
2023-04-15T18:07:07.093Z,4.47
2023-04-15T18:09:34.052Z,3.28
2023-04-15T18:12:02.118Z,3.13
2023-04-15T18:14:34.577Z,6.38
2023-04-15T18:17:03.236Z,3.05
2023-04-15T18:19:30.762Z,4.20
2023-04-15T18:22:00.239Z,3.58
2023-04-15T18:24:28.098Z,5.63
2023-04-15T18:26:54.973Z,13.88
2023-04-15T18:29:22.008Z,10.55
2023-04-15T18:31:48.948Z,9.60
2023-04-15T18:34:15.736Z,5.03
2023-04-15T18:36:42.627Z,4.68
2023-04-15T18:39:09.736Z,2.50
2023-04-15T18:41:36.758Z,2.50
2023-04-15T18:44:03.708Z,3.42
2023-04-15T18:46:30.553Z,2.30
2023-04-15T18:48:57.422Z,2.90
2023-04-15T18:51:27.480Z,2.75
2023-04-15T18:53:54.348Z,2.90
2023-04-15T18:56:21.410Z,3.03
2023-04-15T18:59:08.337Z,2.70
2023-04-15T19:01:35.553Z,2.58
2023-04-15T19:04:02.513Z,3.83
2023-04-15T19:06:29.516Z,3.33
2023-04-15T19:08:58.748Z,3.13
2023-04-15T19:11:26.085Z,2.30
2023-04-15T19:13:53.179Z,2.78
2023-04-15T19:16:20.626Z,2.65
2023-04-15T19:18:47.455Z,2.40
2023-04-15T19:21:14.903Z,3.22
2023-04-15T19:23:43.225Z,2.58
2023-04-15T19:26:11.266Z,3.22
2023-04-15T19:28:38.143Z,3.33
2023-04-15T19:31:05.216Z,3.22
2023-04-15T19:33:32.282Z,3.17
2023-04-15T19:36:04.356Z,3.42
2023-04-15T19:38:36.074Z,2.30
2023-04-15T19:41:03.105Z,2.45
2023-04-15T19:43:33.025Z,2.60
2023-04-15T19:46:00.012Z,2.50
2023-04-15T19:48:27.131Z,3.75
2023-04-15T19:50:54.077Z,3.42
2023-04-15T19:53:20.933Z,2.83
2023-04-15T19:55:48.536Z,3.25
2023-04-15T19:58:15.656Z,3.30
2023-04-15T20:00:42.718Z,2.42
2023-04-15T20:03:09.751Z,2.97
2023-04-15T20:05:36.729Z,3.65
2023-04-15T20:08:03.752Z,8.32
2023-04-15T20:10:31.941Z,7.85
2023-04-15T20:12:59.160Z,7.60
2023-04-15T20:15:26.272Z,6.35
2023-04-15T20:17:53.427Z,5.60
2023-04-15T20:20:20.738Z,4.75
2023-04-15T20:22:47.912Z,4.55
2023-04-15T20:25:15.108Z,3.40
2023-04-15T20:27:42.095Z,3.13
2023-04-15T20:30:09.397Z,2.60
2023-04-15T20:32:36.747Z,3.33
2023-04-15T20:35:05.635Z,3.85
2023-04-15T20:37:33.773Z,5.80
2023-04-15T20:40:01.733Z,6.90
2023-04-15T20:42:33.317Z,5.75
2023-04-15T20:45:00.550Z,6.18
2023-04-15T20:47:27.511Z,7.60
2023-04-15T20:49:54.515Z,8.60
2023-04-15T20:52:21.936Z,8.68
2023-04-15T20:54:48.812Z,7.13
2023-04-15T20:57:17.029Z,6.15
2023-04-15T20:59:43.946Z,5.72
2023-04-15T21:02:10.984Z,5.38
2023-04-15T21:04:40.753Z,5.60
2023-04-15T21:07:07.708Z,6.70
2023-04-15T21:09:52.761Z,6.68
2023-04-15T21:12:22.561Z,7.05
2023-04-15T21:14:50.227Z,6.65
2023-04-15T21:17:17.136Z,7.18
2023-04-15T21:19:44.033Z,7.65
2023-04-15T21:22:10.926Z,8.15
2023-04-15T21:24:37.759Z,7.13
2023-04-15T21:27:04.570Z,5.50
2023-04-15T21:29:31.457Z,5.60
2023-04-15T21:31:58.379Z,4.78
2023-04-15T21:34:25.254Z,4.78
2023-04-15T21:36:54.316Z,5.95
2023-04-15T21:39:21.592Z,8.38
2023-04-15T21:41:48.459Z,8.02
2023-04-15T21:44:15.521Z,8.05
2023-04-15T21:46:46.056Z,7.53
2023-04-15T21:49:13.677Z,7.85
2023-04-15T21:51:40.693Z,6.57
2023-04-15T21:54:07.679Z,9.05
2023-04-15T21:56:34.810Z,7.15
2023-04-15T21:59:01.616Z,6.15
2023-04-15T22:01:28.579Z,5.68
2023-04-15T22:03:55.738Z,4.95
2023-04-15T22:06:23.033Z,5.43
2023-04-15T22:08:56.882Z,4.68
2023-04-15T22:11:30.510Z,4.80
2023-04-15T22:13:58.411Z,5.95
2023-04-15T22:16:26.549Z,13.07
2023-04-15T22:18:54.313Z,18.85
2023-04-15T22:21:21.250Z,28.65
2023-04-15T22:23:49.392Z,26.92
2023-04-15T22:26:18.611Z,17.80
2023-04-15T22:28:45.660Z,11.02
2023-04-15T22:31:13.786Z,9.27
2023-04-15T22:33:40.709Z,7.28
2023-04-15T22:36:07.702Z,6.85
2023-04-15T22:38:34.580Z,5.20
2023-04-15T22:41:01.557Z,5.40
2023-04-15T22:43:28.510Z,8.00
2023-04-15T22:45:55.597Z,8.30
2023-04-15T22:48:23.076Z,6.53
2023-04-15T22:50:50.362Z,5.72
2023-04-15T22:53:18.012Z,4.93
2023-04-15T22:55:46.805Z,4.78
2023-04-15T22:58:14.488Z,6.18
2023-04-15T23:00:41.501Z,7.63
2023-04-15T23:03:08.549Z,6.70
2023-04-15T23:05:35.729Z,6.63
2023-04-15T23:08:03.236Z,6.85
2023-04-15T23:10:30.055Z,6.00
2023-04-15T23:12:56.866Z,5.15
2023-04-15T23:15:24.135Z,4.43
2023-04-15T23:17:51.108Z,4.80
2023-04-15T23:20:18.077Z,3.80
2023-04-15T23:22:45.522Z,4.10
2023-04-15T23:25:12.427Z,3.97
2023-04-15T23:27:39.278Z,4.32
2023-04-15T23:30:07.060Z,4.68
2023-04-15T23:32:33.965Z,4.28
2023-04-15T23:35:00.847Z,4.65
2023-04-15T23:37:30.379Z,4.63
2023-04-15T23:39:57.315Z,4.50
2023-04-15T23:42:24.345Z,4.88
2023-04-15T23:44:51.341Z,5.00
2023-04-15T23:47:18.238Z,5.15
2023-04-15T23:49:45.163Z,5.78
2023-04-15T23:52:12.108Z,6.03
2023-04-15T23:54:38.963Z,5.55
2023-04-15T23:57:05.815Z,5.25
2023-04-15T23:59:32.644Z,5.18
